createdAt,value
2023-02-14T00:01:47.677Z,20.93
2023-02-14T00:04:17.408Z,21.00
2023-02-14T00:06:45.847Z,20.97
2023-02-14T00:09:16.651Z,22.53
2023-02-14T00:11:45.745Z,22.73
2023-02-14T00:14:31.946Z,21.17
2023-02-14T00:17:01.815Z,22.57
2023-02-14T00:19:31.555Z,22.87
2023-02-14T00:21:59.823Z,21.33
2023-02-14T00:24:28.132Z,22.47
2023-02-14T00:26:56.600Z,22.53
2023-02-14T00:29:27.284Z,21.93
2023-02-14T00:31:56.009Z,23.77
2023-02-14T00:34:27.151Z,24.40
2023-02-14T00:36:55.380Z,21.33
2023-02-14T00:39:23.626Z,21.80
2023-02-14T00:41:51.923Z,22.20
2023-02-14T00:44:20.236Z,21.97
2023-02-14T00:46:48.513Z,21.13
2023-02-14T00:49:16.827Z,22.10
2023-02-14T00:51:46.461Z,22.13
2023-02-14T00:54:14.738Z,23.53
2023-02-14T00:56:43.128Z,23.73
2023-02-14T00:59:11.417Z,22.27
2023-02-14T01:01:39.757Z,23.77
2023-02-14T01:04:08.669Z,24.93
2023-02-14T01:06:37.194Z,24.90
2023-02-14T01:09:06.924Z,24.10
2023-02-14T01:11:35.326Z,25.43
2023-02-14T01:14:03.907Z,25.70
2023-02-14T01:16:32.252Z,26.77
2023-02-14T01:19:01.537Z,26.33
2023-02-14T01:21:31.288Z,26.80
2023-02-14T01:24:01.581Z,29.70
2023-02-14T01:26:31.984Z,28.33
2023-02-14T01:29:03.377Z,29.50
2023-02-14T01:31:34.007Z,28.80
2023-02-14T01:34:02.467Z,29.80
2023-02-14T01:36:32.700Z,29.30
2023-02-14T01:39:04.000Z,27.90
2023-02-14T01:41:35.944Z,31.87
2023-02-14T01:44:05.956Z,31.60
2023-02-14T01:46:35.983Z,31.23
2023-02-14T01:49:10.599Z,30.93
2023-02-14T01:51:44.428Z,28.50
2023-02-14T01:54:13.868Z,31.30
2023-02-14T01:56:47.362Z,32.17
2023-02-14T01:59:19.185Z,30.40
2023-02-14T02:01:49.465Z,30.50
2023-02-14T02:04:23.882Z,28.53
2023-02-14T02:06:56.271Z,30.20
2023-02-14T02:09:32.140Z,28.13
2023-02-14T02:12:02.543Z,27.63
2023-02-14T02:14:31.186Z,27.60
2023-02-14T02:17:21.691Z,27.10
2023-02-14T02:20:24.646Z,26.40
2023-02-14T02:23:23.084Z,25.23
2023-02-14T02:26:14.976Z,24.57
2023-02-14T02:29:07.484Z,23.83
2023-02-14T02:32:08.708Z,23.77
2023-02-14T02:35:05.626Z,25.33
2023-02-14T02:37:44.118Z,25.70
2023-02-14T02:40:28.592Z,24.47
2023-02-14T02:43:08.020Z,26.67
2023-02-14T02:45:59.157Z,24.63
2023-02-14T02:48:34.212Z,26.60
2023-02-14T02:51:25.071Z,26.83
2023-02-14T02:53:58.748Z,25.53
2023-02-14T02:56:49.777Z,25.40
2023-02-14T02:59:23.134Z,24.30
2023-02-14T03:01:58.556Z,24.73
2023-02-14T03:04:46.372Z,25.80
2023-02-14T03:07:33.632Z,23.93
2023-02-14T03:10:04.737Z,24.50
2023-02-14T03:12:52.391Z,23.97
2023-02-14T03:15:27.280Z,27.20
2023-02-14T03:18:03.915Z,24.93
2023-02-14T03:20:43.866Z,25.57
2023-02-14T03:23:18.723Z,25.07
2023-02-14T03:25:56.890Z,24.57
2023-02-14T03:28:34.813Z,26.40
2023-02-14T03:31:08.977Z,25.17
2023-02-14T03:33:44.798Z,24.80
2023-02-14T03:36:17.838Z,26.20
2023-02-14T03:38:52.054Z,26.33
2023-02-14T03:41:23.666Z,26.73
2023-02-14T03:43:55.535Z,25.03
2023-02-14T03:46:28.779Z,26.50
2023-02-14T03:49:00.993Z,24.57
2023-02-14T03:51:34.488Z,25.67
2023-02-14T03:54:08.142Z,27.73
2023-02-14T03:56:39.119Z,26.20
2023-02-14T03:59:10.342Z,24.37
2023-02-14T04:01:44.562Z,24.67
2023-02-14T04:04:16.085Z,25.50
2023-02-14T04:06:44.758Z,24.77
2023-02-14T04:09:14.364Z,25.87
2023-02-14T04:11:42.907Z,25.93
2023-02-14T04:14:11.208Z,26.93
2023-02-14T04:16:53.383Z,25.80
2023-02-14T04:19:24.590Z,25.90
2023-02-14T04:21:53.423Z,27.60
2023-02-14T04:24:23.076Z,26.80
2023-02-14T04:27:05.210Z,29.03
2023-02-14T04:29:33.513Z,28.77
2023-02-14T04:32:01.841Z,28.43
2023-02-14T04:34:30.170Z,28.10
2023-02-14T04:36:58.389Z,27.33
2023-02-14T04:39:28.190Z,26.87
2023-02-14T04:41:56.555Z,30.93
2023-02-14T04:44:25.223Z,29.03
2023-02-14T04:46:53.652Z,31.80
2023-02-14T04:49:21.927Z,31.20
2023-02-14T04:51:50.235Z,31.37
2023-02-14T04:54:18.476Z,33.03
2023-02-14T04:56:48.084Z,34.43
2023-02-14T04:59:16.731Z,32.40
2023-02-14T05:01:45.033Z,31.43
2023-02-14T05:04:13.275Z,31.43
2023-02-14T05:06:41.538Z,31.10
2023-02-14T05:09:09.743Z,34.13
2023-02-14T05:11:38.602Z,31.67
2023-02-14T05:14:08.243Z,33.70
2023-02-14T05:16:36.734Z,32.87
2023-02-14T05:19:05.167Z,33.67
2023-02-14T05:21:33.422Z,31.27
2023-02-14T05:24:02.099Z,34.50
2023-02-14T05:26:30.362Z,32.93
2023-02-14T05:28:58.567Z,33.23
2023-02-14T05:31:28.409Z,35.37
2023-02-14T05:33:56.753Z,34.30
2023-02-14T05:36:25.129Z,34.87
2023-02-14T05:38:53.356Z,33.97
2023-02-14T05:41:21.627Z,33.67
2023-02-14T05:43:49.848Z,32.13
2023-02-14T05:46:18.046Z,32.27
2023-02-14T05:48:47.649Z,32.80
2023-02-14T05:51:15.908Z,33.63
2023-02-14T05:53:44.124Z,32.43
2023-02-14T05:56:12.334Z,33.37
2023-02-14T05:58:40.546Z,32.87
2023-02-14T06:01:08.815Z,31.00
2023-02-14T06:03:37.114Z,29.43
2023-02-14T06:06:07.284Z,30.30
2023-02-14T06:08:35.588Z,30.63
2023-02-14T06:11:03.849Z,31.50
2023-02-14T06:13:32.123Z,32.73
2023-02-14T06:16:00.379Z,31.30
2023-02-14T06:18:29.680Z,30.30
2023-02-14T06:20:58.320Z,32.10
2023-02-14T06:23:28.146Z,32.53
2023-02-14T06:25:56.458Z,33.43
2023-02-14T06:28:24.703Z,31.77
2023-02-14T06:30:53.033Z,32.40
2023-02-14T06:33:21.291Z,31.53
2023-02-14T06:35:49.483Z,31.33
2023-02-14T06:38:17.805Z,30.50
2023-02-14T06:40:49.642Z,32.07
2023-02-14T06:43:18.054Z,31.23
2023-02-14T06:45:47.979Z,29.30
2023-02-14T06:48:16.216Z,30.20
2023-02-14T06:50:44.404Z,29.73
2023-02-14T06:53:12.629Z,29.23
2023-02-14T06:55:42.958Z,30.37
2023-02-14T06:58:13.631Z,31.83
2023-02-14T07:00:42.217Z,29.93
2023-02-14T07:03:10.495Z,29.27
2023-02-14T07:05:38.909Z,28.70
2023-02-14T07:08:08.180Z,29.63
2023-02-14T07:10:36.636Z,29.83
2023-02-14T07:13:05.009Z,30.53
2023-02-14T07:15:35.124Z,30.43
2023-02-14T07:18:03.508Z,29.50
2023-02-14T07:20:31.876Z,29.33
2023-02-14T07:23:00.107Z,30.83
2023-02-14T07:25:29.031Z,28.83
2023-02-14T07:27:57.277Z,28.50
2023-02-14T07:30:25.824Z,31.93
2023-02-14T07:32:55.980Z,32.00
2023-02-14T07:35:24.355Z,31.37
2023-02-14T07:37:52.660Z,30.57
2023-02-14T07:40:21.345Z,30.20
2023-02-14T07:42:54.498Z,30.13
2023-02-14T07:45:23.115Z,30.67
2023-02-14T07:47:53.523Z,31.97
2023-02-14T07:50:24.431Z,31.60
2023-02-14T07:52:52.819Z,30.53
2023-02-14T07:55:21.436Z,31.67
2023-02-14T07:57:50.198Z,29.23
2023-02-14T08:00:19.106Z,32.30
2023-02-14T08:02:47.323Z,30.27
2023-02-14T08:05:15.983Z,31.10
2023-02-14T08:07:47.362Z,30.10
2023-02-14T08:10:16.034Z,29.30
2023-02-14T08:13:03.503Z,31.03
2023-02-14T08:15:51.886Z,30.77
2023-02-14T08:18:21.197Z,32.43
2023-02-14T08:20:50.805Z,32.30
2023-02-14T08:23:21.640Z,30.77
2023-02-14T08:25:51.228Z,30.63
2023-02-14T08:28:21.903Z,30.60
2023-02-14T08:30:50.842Z,30.10
2023-02-14T08:33:19.208Z,29.13
2023-02-14T08:35:47.588Z,28.90
2023-02-14T08:38:15.874Z,30.77
2023-02-14T08:40:45.658Z,29.80
2023-02-14T08:43:14.464Z,28.57
2023-02-14T08:45:42.970Z,29.10
2023-02-14T08:48:13.086Z,28.13
2023-02-14T08:50:42.090Z,27.70
2023-02-14T08:53:11.937Z,28.93
2023-02-14T08:55:40.984Z,25.93
2023-02-14T08:58:10.610Z,27.50
2023-02-14T09:00:39.447Z,25.97
2023-02-14T09:03:07.775Z,26.73
2023-02-14T09:05:36.013Z,27.53
2023-02-14T09:08:04.872Z,26.53
2023-02-14T09:10:33.150Z,26.80
2023-02-14T09:13:01.405Z,25.27
2023-02-14T09:15:31.500Z,27.40
2023-02-14T09:17:59.764Z,25.37
2023-02-14T09:20:28.126Z,24.87
2023-02-14T09:22:57.188Z,27.03
2023-02-14T09:25:25.455Z,25.70
2023-02-14T09:27:53.702Z,24.80
2023-02-14T09:30:22.046Z,26.40
2023-02-14T09:32:54.061Z,25.70
2023-02-14T09:35:39.679Z,24.20
2023-02-14T09:38:19.781Z,25.00
2023-02-14T09:40:50.542Z,24.40
2023-02-14T09:43:25.310Z,24.57
2023-02-14T09:45:56.275Z,25.07
2023-02-14T09:48:32.417Z,24.50
2023-02-14T09:51:03.331Z,24.97
2023-02-14T09:53:34.877Z,25.40
2023-02-14T09:56:10.248Z,26.33
2023-02-14T09:58:47.242Z,23.53
2023-02-14T10:01:23.297Z,24.17
2023-02-14T10:04:27.495Z,23.27
2023-02-14T10:06:59.758Z,24.07
2023-02-14T10:09:45.066Z,21.93
2023-02-14T10:12:21.441Z,24.47
2023-02-14T10:14:50.962Z,23.27
2023-02-14T10:17:23.660Z,24.97
2023-02-14T10:19:59.122Z,24.00
2023-02-14T10:22:39.670Z,21.40
2023-02-14T10:25:15.474Z,23.87
2023-02-14T10:27:47.293Z,24.57
2023-02-14T10:30:18.815Z,24.07
2023-02-14T10:32:49.720Z,24.23
2023-02-14T10:35:27.324Z,22.97
2023-02-14T10:38:06.598Z,24.43
2023-02-14T10:40:43.284Z,22.77
2023-02-14T10:43:23.693Z,23.23
2023-02-14T10:46:00.382Z,23.17
2023-02-14T10:48:48.031Z,23.87
2023-02-14T10:51:23.286Z,24.67
2023-02-14T10:54:01.749Z,24.53
2023-02-14T10:56:35.845Z,23.30
2023-02-14T10:59:16.059Z,24.57
2023-02-14T11:01:44.979Z,24.60
2023-02-14T11:04:14.714Z,25.27
2023-02-14T11:06:46.068Z,24.30
2023-02-14T11:09:14.337Z,25.13
2023-02-14T11:11:46.593Z,23.57
2023-02-14T11:14:28.215Z,23.43
2023-02-14T11:16:57.775Z,23.20
2023-02-14T11:19:29.661Z,23.53
2023-02-14T11:22:00.810Z,24.43
2023-02-14T11:24:31.374Z,23.77
2023-02-14T11:27:01.930Z,25.10
2023-02-14T11:29:34.510Z,26.30
2023-02-14T11:32:09.398Z,24.50
2023-02-14T11:34:40.981Z,24.37
2023-02-14T11:37:27.801Z,24.67
2023-02-14T11:39:58.265Z,24.57
2023-02-14T11:42:45.383Z,24.67
2023-02-14T11:45:35.146Z,24.70
2023-02-14T11:48:31.532Z,25.17
2023-02-14T11:51:09.000Z,25.30
2023-02-14T11:53:46.068Z,24.67
2023-02-14T11:56:15.534Z,23.43
2023-02-14T11:58:51.045Z,23.97
2023-02-14T12:01:24.333Z,24.40
2023-02-14T12:03:54.141Z,23.97
2023-02-14T12:06:25.867Z,24.23
2023-02-14T12:09:12.288Z,23.50
2023-02-14T12:11:41.128Z,23.87
2023-02-14T12:14:22.299Z,24.00
2023-02-14T12:16:57.112Z,24.07
2023-02-14T12:19:35.776Z,22.90
2023-02-14T12:22:06.105Z,24.10
2023-02-14T12:24:39.261Z,23.87
2023-02-14T12:27:20.115Z,22.47
2023-02-14T12:29:52.707Z,23.17
2023-02-14T12:32:26.095Z,23.63
2023-02-14T12:35:03.298Z,25.10
2023-02-14T12:37:40.671Z,23.97
2023-02-14T12:40:22.499Z,24.03
2023-02-14T12:43:10.702Z,25.03
2023-02-14T12:46:00.700Z,22.63
2023-02-14T12:48:39.574Z,22.60
2023-02-14T12:51:12.053Z,23.80
2023-02-14T12:54:03.170Z,23.33
2023-02-14T12:56:43.607Z,24.17
2023-02-14T12:59:29.286Z,24.57
2023-02-14T13:02:18.599Z,23.97
2023-02-14T13:05:00.732Z,22.47
2023-02-14T13:07:50.169Z,22.37
2023-02-14T13:10:30.128Z,21.63
2023-02-14T13:13:04.950Z,23.53
2023-02-14T13:15:43.288Z,21.27
2023-02-14T13:18:20.136Z,22.43
2023-02-14T13:20:52.848Z,22.07
2023-02-14T13:23:27.403Z,22.40
2023-02-14T13:26:00.540Z,21.53
2023-02-14T13:28:31.959Z,22.83
2023-02-14T13:31:01.873Z,22.50
2023-02-14T13:33:35.350Z,21.97
2023-02-14T13:36:07.791Z,22.50
2023-02-14T13:38:45.153Z,21.10
2023-02-14T13:41:14.832Z,21.27
2023-02-14T13:43:52.544Z,22.10
2023-02-14T13:46:49.213Z,21.47
2023-02-14T13:49:36.243Z,21.27
2023-02-14T13:52:06.498Z,21.43
2023-02-14T13:54:44.937Z,22.67
2023-02-14T13:57:33.970Z,21.43
2023-02-14T14:00:49.854Z,22.40
2023-02-14T14:03:56.633Z,21.83
2023-02-14T14:06:24.911Z,21.73
2023-02-14T14:08:56.162Z,21.93
2023-02-14T14:11:58.447Z,21.63
2023-02-14T14:14:36.432Z,21.50
2023-02-14T14:17:20.886Z,19.40
2023-02-14T14:19:53.737Z,20.80
2023-02-14T14:22:22.956Z,21.63
2023-02-14T14:25:02.503Z,22.03
2023-02-14T14:27:34.495Z,21.60
2023-02-14T14:30:04.190Z,21.17
2023-02-14T14:32:34.880Z,21.43
2023-02-14T14:35:08.247Z,21.13
2023-02-14T14:37:38.346Z,20.93
2023-02-14T14:40:09.616Z,21.60
2023-02-14T14:42:40.946Z,22.40
2023-02-14T14:45:20.715Z,21.80
2023-02-14T14:47:49.976Z,21.53
2023-02-14T14:50:23.851Z,22.20
2023-02-14T14:52:55.485Z,20.80
2023-02-14T14:55:27.571Z,22.30
2023-02-14T14:57:57.880Z,23.53
2023-02-14T15:00:29.575Z,23.17
2023-02-14T15:03:03.875Z,23.33
2023-02-14T15:05:36.522Z,22.07
2023-02-14T15:08:16.821Z,22.93
2023-02-14T15:10:52.510Z,21.33
2023-02-14T15:13:39.788Z,21.47
2023-02-14T15:16:08.993Z,21.53
2023-02-14T15:18:40.614Z,22.37
2023-02-14T15:21:10.561Z,21.53
2023-02-14T15:23:39.456Z,23.03
2023-02-14T15:26:12.691Z,23.77
2023-02-14T15:28:41.327Z,23.80
2023-02-14T15:31:09.992Z,22.97
2023-02-14T15:33:39.565Z,24.07
2023-02-14T15:36:17.272Z,23.77
2023-02-14T15:38:45.801Z,23.77
2023-02-14T15:41:15.272Z,22.73
2023-02-14T15:43:44.254Z,24.43
2023-02-14T15:46:20.791Z,23.40
2023-02-14T15:48:49.265Z,24.03
2023-02-14T15:51:21.892Z,23.53
2023-02-14T15:53:54.080Z,23.57
2023-02-14T15:56:26.167Z,22.50
2023-02-14T15:59:01.360Z,23.97
2023-02-14T16:01:31.372Z,23.57
2023-02-14T16:04:02.749Z,24.10
2023-02-14T16:06:35.937Z,23.93
2023-02-14T16:09:06.696Z,23.83
2023-02-14T16:11:37.233Z,24.30
2023-02-14T16:14:31.987Z,24.03
2023-02-14T16:17:02.589Z,24.53
2023-02-14T16:19:38.731Z,22.60
2023-02-14T16:22:09.547Z,23.67
2023-02-14T16:24:42.034Z,23.47
2023-02-14T16:27:13.343Z,24.57
2023-02-14T16:29:42.323Z,23.27
2023-02-14T16:32:17.450Z,24.40
2023-02-14T16:34:48.223Z,23.67
2023-02-14T16:37:23.552Z,24.73
2023-02-14T16:39:53.961Z,23.63
2023-02-14T16:42:22.264Z,24.60
2023-02-14T16:44:51.345Z,23.93
2023-02-14T16:47:21.545Z,25.20
2023-02-14T16:49:50.725Z,25.53
2023-02-14T16:52:23.818Z,25.90
2023-02-14T16:54:52.180Z,24.60
2023-02-14T16:57:26.323Z,26.40
2023-02-14T16:59:57.047Z,25.63
2023-02-14T17:02:28.326Z,25.77
2023-02-14T17:04:57.112Z,24.97
2023-02-14T17:07:28.066Z,26.53
2023-02-14T17:10:00.901Z,26.20
2023-02-14T17:12:33.450Z,26.80
2023-02-14T17:15:07.112Z,26.30
2023-02-14T17:17:36.628Z,27.23
2023-02-14T17:20:08.174Z,28.90
2023-02-14T17:22:38.273Z,29.73
2023-02-14T17:25:07.197Z,27.33
2023-02-14T17:27:35.527Z,28.67
2023-02-14T17:30:04.166Z,29.00
2023-02-14T17:32:32.471Z,39.40
2023-02-14T17:35:03.487Z,62.90
2023-02-14T17:37:32.200Z,60.33
2023-02-14T17:40:01.923Z,61.47
2023-02-14T17:42:32.341Z,51.03
2023-02-14T17:45:01.082Z,49.23
2023-02-14T17:47:30.348Z,43.53
2023-02-14T17:49:58.589Z,45.40
2023-02-14T17:52:29.771Z,42.73
2023-02-14T17:55:02.327Z,41.73
2023-02-14T17:57:42.611Z,54.50
2023-02-14T18:00:14.188Z,106.90
2023-02-14T18:02:42.961Z,89.47
2023-02-14T18:05:12.266Z,78.77
2023-02-14T18:07:40.529Z,56.47
2023-02-14T18:10:11.170Z,52.30
2023-02-14T18:12:40.185Z,56.27
2023-02-14T18:15:09.109Z,63.27
2023-02-14T18:17:38.793Z,62.07
2023-02-14T18:20:08.350Z,39.70
2023-02-14T18:22:36.789Z,46.00
2023-02-14T18:25:05.473Z,39.63
2023-02-14T18:27:35.061Z,37.70
2023-02-14T18:30:03.342Z,38.37
2023-02-14T18:32:31.974Z,39.53
2023-02-14T18:35:01.542Z,42.43
2023-02-14T18:37:29.753Z,40.53
2023-02-14T18:39:57.997Z,38.10
2023-02-14T18:42:26.292Z,39.97
2023-02-14T18:44:55.906Z,38.87
2023-02-14T18:47:24.200Z,38.60
2023-02-14T18:49:52.412Z,40.13
2023-02-14T18:52:20.633Z,39.40
2023-02-14T18:54:49.053Z,39.27
2023-02-14T18:57:17.336Z,39.47
2023-02-14T18:59:46.225Z,37.47
2023-02-14T19:02:15.887Z,39.43
2023-02-14T19:04:44.253Z,39.87
2023-02-14T19:07:12.559Z,40.57
2023-02-14T19:09:43.122Z,39.20
2023-02-14T19:12:11.703Z,40.43
2023-02-14T19:14:39.996Z,39.47
2023-02-14T19:17:08.300Z,36.87
2023-02-14T19:19:38.163Z,39.30
2023-02-14T19:22:06.481Z,38.50
2023-02-14T19:24:34.728Z,40.50
2023-02-14T19:27:03.813Z,40.33
2023-02-14T19:29:32.050Z,39.53
2023-02-14T19:32:00.502Z,39.87
2023-02-14T19:34:31.060Z,40.97
2023-02-14T19:37:03.619Z,41.33
2023-02-14T19:39:34.649Z,39.57
2023-02-14T19:42:04.380Z,38.97
2023-02-14T19:44:32.750Z,40.67
2023-02-14T19:47:04.234Z,39.37
2023-02-14T19:49:38.532Z,41.53
2023-02-14T19:52:17.246Z,40.93
2023-02-14T19:54:53.167Z,41.57
2023-02-14T19:57:21.393Z,42.47
2023-02-14T19:59:50.282Z,40.33
2023-02-14T20:02:20.069Z,38.87
2023-02-14T20:04:48.389Z,38.23
2023-02-14T20:07:19.493Z,38.67
2023-02-14T20:09:47.710Z,38.63
2023-02-14T20:12:15.950Z,39.57
2023-02-14T20:14:51.444Z,40.93
2023-02-14T20:17:20.268Z,44.53
2023-02-14T20:19:48.961Z,41.40
2023-02-14T20:22:20.324Z,42.00
2023-02-14T20:24:48.644Z,42.00
2023-02-14T20:27:17.221Z,44.77
2023-02-14T20:29:45.515Z,48.40
2023-02-14T20:32:15.992Z,46.40
2023-02-14T20:34:44.226Z,45.63
2023-02-14T20:37:13.144Z,43.67
2023-02-14T20:39:43.482Z,45.83
2023-02-14T20:42:11.775Z,45.70
2023-02-14T20:44:41.566Z,44.97
2023-02-14T20:47:11.274Z,45.33
2023-02-14T20:49:41.331Z,45.07
2023-02-14T20:52:10.053Z,46.37
2023-02-14T20:54:40.282Z,45.47
2023-02-14T20:57:09.973Z,44.90
2023-02-14T20:59:44.643Z,47.63
2023-02-14T21:02:13.331Z,46.10
2023-02-14T21:04:42.228Z,46.70
2023-02-14T21:07:10.696Z,45.90
2023-02-14T21:09:39.684Z,45.63
2023-02-14T21:12:09.601Z,47.93
2023-02-14T21:14:38.981Z,46.83
2023-02-14T21:17:07.250Z,47.50
2023-02-14T21:19:35.543Z,47.17
2023-02-14T21:22:04.268Z,47.43
2023-02-14T21:24:32.562Z,49.00
2023-02-14T21:27:01.750Z,49.23
2023-02-14T21:29:31.477Z,50.37
2023-02-14T21:32:02.462Z,47.43
2023-02-14T21:34:31.875Z,46.87
2023-02-14T21:37:00.067Z,47.77
2023-02-14T21:39:30.954Z,51.10
2023-02-14T21:41:59.747Z,49.60
2023-02-14T21:44:45.588Z,48.00
2023-02-14T21:47:15.343Z,51.20
2023-02-14T21:50:00.621Z,50.17
2023-02-14T21:52:30.245Z,49.17
2023-02-14T21:54:58.564Z,50.00
2023-02-14T21:57:27.098Z,50.60
2023-02-14T21:59:55.320Z,51.37
2023-02-14T22:02:25.003Z,52.57
2023-02-14T22:04:53.259Z,49.87
2023-02-14T22:07:21.484Z,50.03
2023-02-14T22:09:49.751Z,49.70
2023-02-14T22:12:17.999Z,53.80
2023-02-14T22:14:46.232Z,49.50
2023-02-14T22:17:14.482Z,51.37
2023-02-14T22:19:44.088Z,50.93
2023-02-14T22:22:12.310Z,50.60
2023-02-14T22:24:40.856Z,50.47
2023-02-14T22:27:09.123Z,51.00
2023-02-14T22:29:37.941Z,48.23
2023-02-14T22:32:06.604Z,50.40
2023-02-14T22:34:34.989Z,49.03
2023-02-14T22:37:04.627Z,47.03
2023-02-14T22:39:33.397Z,49.47
2023-02-14T22:42:05.298Z,48.73
2023-02-14T22:44:33.932Z,49.90
2023-02-14T22:47:02.369Z,50.30
2023-02-14T22:49:30.836Z,50.50
2023-02-14T22:51:59.089Z,48.97
2023-02-14T22:54:28.661Z,46.70
2023-02-14T22:56:56.889Z,48.27
2023-02-14T22:59:28.110Z,47.80
2023-02-14T23:01:56.373Z,48.80
2023-02-14T23:04:25.654Z,46.57
2023-02-14T23:06:54.594Z,44.93
2023-02-14T23:09:24.404Z,45.73
2023-02-14T23:11:53.986Z,44.53
2023-02-14T23:14:39.617Z,46.03
2023-02-14T23:17:25.500Z,44.57
2023-02-14T23:20:10.895Z,43.93
2023-02-14T23:22:41.469Z,42.47
2023-02-14T23:25:11.580Z,43.27
2023-02-14T23:27:44.087Z,44.67
2023-02-14T23:30:15.767Z,44.10
2023-02-14T23:32:44.486Z,45.27
2023-02-14T23:35:13.061Z,44.97
2023-02-14T23:37:41.760Z,44.40
2023-02-14T23:40:10.920Z,43.73
2023-02-14T23:42:40.989Z,43.77
2023-02-14T23:45:27.183Z,44.67
2023-02-14T23:47:55.453Z,43.67
2023-02-14T23:50:23.717Z,43.77
2023-02-14T23:52:51.959Z,41.57
2023-02-14T23:55:20.252Z,39.67
2023-02-14T23:57:49.882Z,41.13
